createdAt,value
2023-01-07T00:01:40.882Z,31.37
2023-01-07T00:04:11.872Z,26.80
2023-01-07T00:06:41.224Z,28.40
2023-01-07T00:09:14.672Z,25.97
2023-01-07T00:11:42.536Z,25.50
2023-01-07T00:14:12.825Z,26.00
2023-01-07T00:16:40.347Z,25.87
2023-01-07T00:19:10.381Z,26.80
2023-01-07T00:21:37.454Z,26.40
2023-01-07T00:24:09.869Z,30.17
2023-01-07T00:26:38.450Z,28.80
2023-01-07T00:29:06.655Z,25.87
2023-01-07T00:31:39.513Z,26.97
2023-01-07T00:34:09.096Z,27.77
2023-01-07T00:36:41.256Z,26.57
2023-01-07T00:39:18.979Z,27.63
2023-01-07T00:42:05.391Z,29.67
2023-01-07T00:44:33.340Z,28.27
2023-01-07T00:47:00.870Z,35.43
2023-01-07T00:49:27.934Z,30.13
2023-01-07T00:51:54.933Z,32.70
2023-01-07T00:54:21.983Z,26.47
2023-01-07T00:56:49.021Z,37.73
2023-01-07T00:59:16.012Z,35.67
2023-01-07T01:01:43.099Z,34.30
2023-01-07T01:04:10.217Z,33.63
2023-01-07T01:06:37.278Z,37.00
2023-01-07T01:09:04.627Z,33.80
2023-01-07T01:11:31.630Z,36.87
2023-01-07T01:13:58.605Z,41.77
2023-01-07T01:16:25.836Z,41.03
2023-01-07T01:18:52.898Z,43.93
2023-01-07T01:21:19.992Z,42.53
2023-01-07T01:23:47.236Z,43.97
2023-01-07T01:26:17.045Z,46.17
2023-01-07T01:28:45.135Z,41.93
2023-01-07T01:31:12.612Z,47.00
2023-01-07T01:33:40.186Z,42.90
2023-01-07T01:36:11.457Z,45.80
2023-01-07T01:38:38.830Z,45.43
2023-01-07T01:41:07.210Z,49.13
2023-01-07T01:43:38.457Z,47.53
2023-01-07T01:46:17.192Z,45.87
2023-01-07T01:49:06.794Z,49.10
2023-01-07T01:51:40.344Z,45.57
2023-01-07T01:54:12.359Z,46.17
2023-01-07T01:56:44.164Z,44.50
2023-01-07T01:59:19.084Z,51.87
2023-01-07T02:01:47.038Z,49.23
2023-01-07T02:04:18.831Z,52.10
2023-01-07T02:07:01.243Z,48.40
2023-01-07T02:09:28.881Z,51.23
2023-01-07T02:12:35.218Z,56.70
2023-01-07T02:15:22.382Z,54.80
2023-01-07T02:18:00.960Z,53.90
2023-01-07T02:20:35.063Z,51.00
2023-01-07T02:23:26.630Z,48.00
2023-01-07T02:26:14.676Z,51.20
2023-01-07T02:29:36.236Z,51.77
2023-01-07T02:32:16.961Z,49.17
2023-01-07T02:35:10.843Z,51.20
2023-01-07T02:38:23.829Z,50.17
2023-01-07T02:41:06.040Z,51.93
2023-01-07T02:43:41.440Z,50.07
2023-01-07T02:46:21.797Z,45.90
2023-01-07T02:48:49.305Z,45.93
2023-01-07T02:51:16.385Z,49.33
2023-01-07T02:53:47.986Z,48.60
2023-01-07T02:56:42.052Z,46.57
2023-01-07T02:59:44.141Z,42.57
2023-01-07T03:03:02.815Z,42.60
2023-01-07T03:05:45.151Z,43.40
2023-01-07T03:08:46.486Z,43.67
2023-01-07T03:11:14.108Z,42.23
2023-01-07T03:13:58.924Z,44.70
2023-01-07T03:16:53.154Z,49.10
2023-01-07T03:19:32.129Z,41.80
2023-01-07T03:22:01.985Z,44.87
2023-01-07T03:24:31.154Z,38.37
2023-01-07T03:27:01.687Z,42.33
2023-01-07T03:29:32.227Z,42.00
2023-01-07T03:32:13.381Z,44.43
2023-01-07T03:34:41.120Z,43.07
2023-01-07T03:37:15.754Z,51.23
2023-01-07T03:39:44.589Z,44.63
2023-01-07T03:42:32.768Z,44.27
2023-01-07T03:45:00.517Z,39.53
2023-01-07T03:47:29.197Z,45.43
2023-01-07T03:49:56.180Z,44.27
2023-01-07T03:52:23.170Z,40.33
2023-01-07T03:54:50.163Z,47.67
2023-01-07T03:57:17.235Z,44.20
2023-01-07T03:59:44.184Z,44.20
2023-01-07T04:02:11.455Z,43.50
2023-01-07T04:04:38.657Z,44.27
2023-01-07T04:07:05.871Z,41.87
2023-01-07T04:09:32.882Z,40.13
2023-01-07T04:11:59.841Z,35.47
2023-01-07T04:14:27.011Z,42.57
2023-01-07T04:16:54.133Z,42.73
2023-01-07T04:19:22.989Z,40.37
2023-01-07T04:21:49.953Z,39.43
2023-01-07T04:24:16.960Z,35.67
2023-01-07T04:26:43.981Z,40.20
2023-01-07T04:29:11.769Z,42.80
2023-01-07T04:31:38.849Z,44.70
2023-01-07T04:34:06.125Z,40.47
2023-01-07T04:36:33.181Z,42.63
2023-01-07T04:39:00.164Z,40.63
2023-01-07T04:41:27.183Z,38.73
2023-01-07T04:43:54.138Z,41.40
2023-01-07T04:46:21.280Z,37.03
2023-01-07T04:48:48.413Z,36.53
2023-01-07T04:51:16.566Z,39.47
2023-01-07T04:53:43.625Z,36.23
2023-01-07T04:56:10.636Z,38.53
2023-01-07T04:58:37.700Z,35.80
2023-01-07T05:01:05.203Z,37.00
2023-01-07T05:03:34.519Z,35.47
2023-01-07T05:06:01.852Z,40.20
2023-01-07T05:08:28.960Z,41.27
2023-01-07T05:10:56.070Z,36.57
2023-01-07T05:13:24.102Z,37.50
2023-01-07T05:15:51.420Z,34.10
2023-01-07T05:18:19.014Z,35.13
2023-01-07T05:20:50.255Z,37.00
2023-01-07T05:23:17.257Z,35.50
2023-01-07T05:25:44.233Z,39.90
2023-01-07T05:28:12.273Z,38.80
2023-01-07T05:30:39.630Z,33.77
2023-01-07T05:33:07.571Z,32.47
2023-01-07T05:35:35.593Z,38.80
2023-01-07T05:38:02.761Z,40.77
2023-01-07T05:40:29.997Z,34.83
2023-01-07T05:42:57.144Z,31.43
2023-01-07T05:45:24.159Z,32.63
2023-01-07T05:47:51.125Z,29.93
2023-01-07T05:50:18.232Z,34.30
2023-01-07T05:52:45.332Z,33.03
2023-01-07T05:55:12.377Z,32.57
2023-01-07T05:57:39.362Z,33.87
2023-01-07T06:00:07.787Z,27.40
2023-01-07T06:02:34.797Z,31.97
2023-01-07T06:05:01.861Z,33.07
2023-01-07T06:07:28.813Z,30.43
2023-01-07T06:09:55.837Z,28.27
2023-01-07T06:12:22.808Z,29.93
2023-01-07T06:14:49.782Z,29.43
2023-01-07T06:17:16.896Z,28.57
2023-01-07T06:19:43.894Z,29.87
2023-01-07T06:22:10.915Z,25.23
2023-01-07T06:24:38.539Z,29.20
2023-01-07T06:27:05.795Z,25.30
2023-01-07T06:29:32.771Z,24.93
2023-01-07T06:31:59.870Z,24.30
2023-01-07T06:34:26.925Z,24.23
2023-01-07T06:36:54.062Z,24.40
2023-01-07T06:39:21.057Z,25.60
2023-01-07T06:41:48.008Z,31.10
2023-01-07T06:44:15.135Z,23.40
2023-01-07T06:46:42.207Z,25.43
2023-01-07T06:49:09.299Z,30.23
2023-01-07T06:51:36.277Z,29.13
2023-01-07T06:54:03.402Z,27.67
2023-01-07T06:56:30.465Z,23.27
2023-01-07T06:58:57.532Z,26.90
2023-01-07T07:01:24.641Z,24.43
2023-01-07T07:03:51.692Z,28.93
2023-01-07T07:06:18.790Z,32.17
2023-01-07T07:08:45.822Z,27.97
2023-01-07T07:11:12.882Z,27.00
2023-01-07T07:13:39.881Z,26.90
2023-01-07T07:16:07.487Z,33.40
2023-01-07T07:18:34.518Z,31.43
2023-01-07T07:21:01.632Z,32.93
2023-01-07T07:23:28.601Z,31.70
2023-01-07T07:25:55.603Z,30.57
2023-01-07T07:28:22.622Z,35.23
2023-01-07T07:30:49.878Z,33.37
2023-01-07T07:33:19.470Z,30.43
2023-01-07T07:35:47.261Z,37.17
2023-01-07T07:38:14.480Z,36.63
2023-01-07T07:40:41.495Z,33.27
2023-01-07T07:43:10.752Z,31.70
2023-01-07T07:45:41.263Z,32.40
2023-01-07T07:48:09.981Z,35.53
2023-01-07T07:50:37.231Z,35.00
2023-01-07T07:53:04.776Z,35.27
2023-01-07T07:55:31.955Z,35.17
2023-01-07T07:57:59.023Z,32.57
2023-01-07T08:00:26.216Z,33.70
2023-01-07T08:02:53.306Z,33.70
2023-01-07T08:05:20.421Z,38.00
2023-01-07T08:07:47.432Z,33.53
2023-01-07T08:10:14.455Z,36.67
2023-01-07T08:12:41.586Z,35.30
2023-01-07T08:15:09.553Z,36.43
2023-01-07T08:17:36.933Z,32.70
2023-01-07T08:20:05.902Z,39.63
2023-01-07T08:22:35.944Z,29.07
2023-01-07T08:25:03.442Z,37.47
2023-01-07T08:27:30.519Z,32.80
2023-01-07T08:29:57.565Z,33.73
2023-01-07T08:32:24.854Z,34.17
2023-01-07T08:34:51.989Z,33.40
2023-01-07T08:37:19.046Z,30.47
2023-01-07T08:39:46.295Z,31.97
2023-01-07T08:42:13.327Z,28.60
2023-01-07T08:44:40.424Z,30.80
2023-01-07T08:47:07.445Z,33.63
2023-01-07T08:49:34.466Z,32.23
2023-01-07T08:52:01.494Z,30.13
2023-01-07T08:54:28.611Z,30.00
2023-01-07T08:56:55.696Z,26.87
2023-01-07T08:59:22.748Z,30.47
2023-01-07T09:01:50.015Z,31.07
2023-01-07T09:04:17.073Z,28.80
2023-01-07T09:06:44.299Z,27.23
2023-01-07T09:09:12.019Z,27.17
2023-01-07T09:11:39.108Z,36.43
2023-01-07T09:14:06.119Z,30.80
2023-01-07T09:16:33.289Z,29.47
2023-01-07T09:19:00.382Z,30.00
2023-01-07T09:21:27.407Z,29.97
2023-01-07T09:23:54.469Z,32.93
2023-01-07T09:26:21.454Z,32.97
2023-01-07T09:28:48.456Z,32.50
2023-01-07T09:31:15.512Z,34.93
2023-01-07T09:33:43.113Z,32.03
2023-01-07T09:36:10.193Z,28.27
2023-01-07T09:38:37.483Z,26.10
2023-01-07T09:41:04.508Z,30.27
2023-01-07T09:44:00.331Z,33.40
2023-01-07T09:46:29.974Z,26.23
2023-01-07T09:49:02.604Z,26.57
2023-01-07T09:51:38.106Z,29.60
2023-01-07T09:54:14.649Z,26.87
2023-01-07T09:56:41.892Z,24.77
2023-01-07T09:59:12.648Z,31.10
2023-01-07T10:02:20.123Z,26.20
2023-01-07T10:05:20.078Z,28.87
2023-01-07T10:08:29.025Z,24.77
2023-01-07T10:11:45.510Z,21.53
2023-01-07T10:14:51.131Z,27.77
2023-01-07T10:17:54.330Z,22.73
2023-01-07T10:20:47.330Z,30.73
2023-01-07T10:23:21.910Z,28.63
2023-01-07T10:25:53.804Z,25.80
2023-01-07T10:28:29.473Z,29.57
2023-01-07T10:30:57.170Z,27.93
2023-01-07T10:33:31.597Z,26.90
2023-01-07T10:36:26.664Z,27.03
2023-01-07T10:39:20.349Z,23.80
2023-01-07T10:42:29.448Z,25.77
2023-01-07T10:45:40.250Z,22.90
2023-01-07T10:48:21.252Z,24.13
2023-01-07T10:51:14.466Z,28.13
2023-01-07T10:54:01.022Z,24.73
2023-01-07T10:56:42.512Z,24.60
2023-01-07T10:59:19.767Z,25.43
2023-01-07T11:01:57.700Z,28.33
2023-01-07T11:04:25.856Z,20.97
2023-01-07T11:06:55.676Z,25.53
2023-01-07T11:09:42.361Z,24.23
2023-01-07T11:12:34.719Z,28.93
2023-01-07T11:15:14.019Z,27.93
2023-01-07T11:17:52.327Z,29.93
2023-01-07T11:20:50.364Z,28.40
2023-01-07T11:23:29.917Z,28.27
2023-01-07T11:26:34.198Z,31.83
2023-01-07T11:29:31.221Z,29.80
2023-01-07T11:32:03.976Z,28.67
2023-01-07T11:34:46.201Z,25.57
2023-01-07T11:37:46.329Z,26.57
2023-01-07T11:40:13.221Z,25.43
2023-01-07T11:43:17.018Z,28.40
2023-01-07T11:46:21.048Z,29.27
2023-01-07T11:49:04.247Z,30.97
2023-01-07T11:51:40.508Z,31.10
2023-01-07T11:54:28.550Z,28.60
2023-01-07T11:57:26.257Z,26.60
2023-01-07T12:00:16.405Z,32.83
2023-01-07T12:02:43.951Z,29.53
2023-01-07T12:05:27.034Z,25.93
2023-01-07T12:07:56.844Z,28.97
2023-01-07T12:10:38.564Z,25.87
2023-01-07T12:13:18.839Z,32.07
2023-01-07T12:15:58.470Z,30.73
2023-01-07T12:19:10.029Z,23.70
2023-01-07T12:22:07.413Z,28.90
2023-01-07T12:24:56.352Z,33.90
2023-01-07T12:28:14.816Z,31.93
2023-01-07T12:31:17.026Z,28.13
2023-01-07T12:34:20.133Z,28.30
2023-01-07T12:37:02.191Z,26.80
2023-01-07T12:39:40.318Z,28.53
2023-01-07T12:42:23.628Z,30.23
2023-01-07T12:44:56.755Z,25.77
2023-01-07T12:47:50.628Z,27.03
2023-01-07T12:50:41.353Z,29.27
2023-01-07T12:53:25.417Z,31.57
2023-01-07T12:56:00.233Z,29.95
2023-01-07T12:58:56.857Z,30.90
2023-01-07T13:01:30.788Z,31.60
2023-01-07T13:04:18.376Z,32.33
2023-01-07T13:07:05.480Z,31.50
2023-01-07T13:09:58.447Z,30.13
2023-01-07T13:12:48.519Z,30.60
2023-01-07T13:15:33.954Z,37.20
2023-01-07T13:18:18.353Z,31.63
2023-01-07T13:21:14.050Z,37.07
2023-01-07T13:24:56.459Z,38.00
2023-01-07T13:28:20.269Z,37.37
2023-01-07T13:31:27.455Z,36.37
2023-01-07T13:34:04.754Z,40.47
2023-01-07T13:37:02.767Z,34.13
2023-01-07T13:40:07.016Z,35.27
2023-01-07T13:42:39.919Z,33.67
2023-01-07T13:45:23.195Z,36.07
2023-01-07T13:47:57.316Z,34.77
2023-01-07T13:50:35.540Z,38.03
2023-01-07T13:53:39.905Z,42.73
2023-01-07T13:56:18.709Z,49.60
2023-01-07T13:58:55.677Z,45.83
2023-01-07T14:01:34.053Z,44.13
2023-01-07T14:04:04.054Z,43.93
2023-01-07T14:06:39.176Z,46.77
2023-01-07T14:09:11.140Z,49.40
2023-01-07T14:11:42.139Z,41.00
2023-01-07T14:14:53.269Z,40.03
2023-01-07T14:17:27.774Z,39.00
2023-01-07T14:20:18.960Z,35.07
2023-01-07T14:23:20.777Z,38.43
2023-01-07T14:26:18.098Z,35.53
2023-01-07T14:29:12.712Z,33.53
2023-01-07T14:31:39.772Z,30.03
2023-01-07T14:34:26.622Z,32.23
2023-01-07T14:37:06.287Z,31.37
2023-01-07T14:39:46.709Z,31.83
2023-01-07T14:42:19.741Z,29.63
2023-01-07T14:44:50.318Z,32.70
2023-01-07T14:47:45.003Z,32.87
2023-01-07T14:50:56.628Z,28.80
2023-01-07T14:53:57.378Z,36.77
2023-01-07T14:56:54.221Z,29.63
2023-01-07T15:00:00.852Z,33.70
2023-01-07T15:03:08.466Z,34.20
2023-01-07T15:06:11.125Z,36.83
2023-01-07T15:09:05.351Z,38.70
2023-01-07T15:11:52.611Z,34.50
2023-01-07T15:15:07.705Z,28.67
2023-01-07T15:17:38.221Z,31.83
2023-01-07T15:20:06.538Z,31.80
2023-01-07T15:23:20.331Z,28.47
2023-01-07T15:26:08.130Z,31.40
2023-01-07T15:28:51.351Z,29.67
2023-01-07T15:31:42.273Z,28.60
2023-01-07T15:34:17.380Z,32.43
2023-01-07T15:36:49.530Z,31.03
2023-01-07T15:39:24.679Z,35.53
2023-01-07T15:41:55.037Z,40.47
2023-01-07T15:44:41.275Z,31.33
2023-01-07T15:47:36.950Z,31.87
2023-01-07T15:50:25.911Z,29.17
2023-01-07T15:53:05.965Z,32.10
2023-01-07T15:56:10.404Z,28.23
2023-01-07T15:58:48.723Z,29.03
2023-01-07T16:01:22.460Z,29.77
2023-01-07T16:03:54.373Z,26.50
2023-01-07T16:06:33.718Z,25.90
2023-01-07T16:09:25.505Z,27.40
2023-01-07T16:11:52.989Z,29.43
2023-01-07T16:14:26.496Z,29.97
2023-01-07T16:17:14.979Z,25.03
2023-01-07T16:19:42.488Z,26.27
2023-01-07T16:22:15.877Z,29.23
2023-01-07T16:24:52.101Z,25.53
2023-01-07T16:27:30.463Z,32.20
2023-01-07T16:29:59.419Z,25.03
2023-01-07T16:32:27.414Z,24.83
2023-01-07T16:35:46.380Z,23.47
2023-01-07T16:38:17.286Z,21.67
2023-01-07T16:40:46.937Z,27.27
2023-01-07T16:43:30.031Z,24.37
2023-01-07T16:46:37.171Z,29.93
2023-01-07T16:49:21.744Z,30.17
2023-01-07T16:52:05.947Z,30.23
2023-01-07T16:54:40.118Z,25.63
2023-01-07T16:57:13.102Z,25.40
2023-01-07T16:59:53.821Z,26.90
2023-01-07T17:02:48.733Z,25.37
2023-01-07T17:05:29.081Z,26.57
2023-01-07T17:07:59.299Z,24.43
2023-01-07T17:10:40.794Z,22.77
2023-01-07T17:13:35.947Z,25.33
2023-01-07T17:16:32.328Z,24.10
2023-01-07T17:19:26.075Z,28.00
2023-01-07T17:21:54.678Z,24.60
2023-01-07T17:24:46.706Z,30.57
2023-01-07T17:27:28.116Z,26.93
2023-01-07T17:29:55.727Z,26.37
2023-01-07T17:32:24.406Z,24.33
2023-01-07T17:34:51.524Z,28.03
2023-01-07T17:37:18.624Z,28.23
2023-01-07T17:39:46.902Z,26.73
2023-01-07T17:42:44.447Z,25.20
2023-01-07T17:45:17.577Z,29.30
2023-01-07T17:47:45.484Z,26.10
2023-01-07T17:50:14.717Z,24.37
2023-01-07T17:52:45.983Z,23.20
2023-01-07T17:55:21.577Z,24.43
2023-01-07T17:57:48.611Z,25.07
2023-01-07T18:00:20.329Z,24.27
2023-01-07T18:02:51.165Z,27.53
2023-01-07T18:05:24.677Z,21.37
2023-01-07T18:07:53.192Z,26.90
2023-01-07T18:10:29.211Z,25.20
2023-01-07T18:12:56.291Z,21.70
2023-01-07T18:15:27.443Z,24.40
2023-01-07T18:17:54.499Z,23.73
2023-01-07T18:20:22.702Z,23.20
2023-01-07T18:22:50.435Z,28.07
2023-01-07T18:25:22.439Z,25.07
2023-01-07T18:27:52.771Z,24.60
2023-01-07T18:30:22.181Z,24.03
2023-01-07T18:32:52.993Z,26.87
2023-01-07T18:35:20.197Z,25.37
2023-01-07T18:37:50.359Z,22.23
2023-01-07T18:40:18.758Z,23.00
2023-01-07T18:42:45.951Z,26.73
2023-01-07T18:45:13.673Z,24.00
2023-01-07T18:47:42.958Z,26.90
2023-01-07T18:50:10.222Z,27.47
2023-01-07T18:52:41.745Z,25.37
2023-01-07T18:55:11.031Z,22.07
2023-01-07T18:57:38.131Z,25.37
2023-01-07T19:00:06.544Z,22.37
2023-01-07T19:02:33.959Z,25.90
2023-01-07T19:05:01.021Z,23.53
2023-01-07T19:07:30.468Z,26.53
2023-01-07T19:09:57.461Z,21.37
2023-01-07T19:12:24.500Z,24.83
2023-01-07T19:14:51.551Z,23.30
2023-01-07T19:17:18.531Z,22.03
2023-01-07T19:19:48.633Z,28.67
2023-01-07T19:22:16.793Z,27.60
2023-01-07T19:24:44.728Z,29.70
2023-01-07T19:27:12.584Z,30.30
2023-01-07T19:29:39.652Z,29.20
2023-01-07T19:32:06.743Z,32.17
2023-01-07T19:34:33.818Z,32.57
2023-01-07T19:37:00.850Z,35.97
2023-01-07T19:39:27.858Z,39.37
2023-01-07T19:41:54.894Z,45.60
2023-01-07T19:44:21.969Z,37.93
2023-01-07T19:46:48.999Z,40.57
2023-01-07T19:49:16.029Z,47.73
2023-01-07T19:51:44.155Z,41.13
2023-01-07T19:54:16.021Z,44.47
2023-01-07T19:56:43.853Z,37.80
2023-01-07T19:59:11.193Z,40.47
2023-01-07T20:01:38.984Z,40.23
2023-01-07T20:04:08.319Z,42.03
2023-01-07T20:06:41.290Z,37.63
2023-01-07T20:09:11.326Z,41.33
2023-01-07T20:11:39.910Z,39.27
2023-01-07T20:14:10.694Z,41.83
2023-01-07T20:16:39.631Z,41.70
2023-01-07T20:19:07.672Z,42.13
2023-01-07T20:21:34.659Z,43.93
2023-01-07T20:24:02.061Z,44.23
2023-01-07T20:26:31.890Z,44.73
2023-01-07T20:29:00.444Z,43.53
2023-01-07T20:31:29.241Z,48.27
2023-01-07T20:33:57.486Z,48.97
2023-01-07T20:36:29.020Z,52.83
2023-01-07T20:38:56.420Z,47.27
2023-01-07T20:41:26.788Z,50.57
2023-01-07T20:43:59.716Z,53.73
2023-01-07T20:46:29.047Z,51.67
2023-01-07T20:48:57.340Z,49.73
2023-01-07T20:51:25.291Z,50.03
2023-01-07T20:53:52.594Z,53.47
2023-01-07T20:56:22.945Z,42.00
2023-01-07T20:58:51.165Z,44.80
2023-01-07T21:01:22.183Z,46.00
2023-01-07T21:03:49.864Z,41.77
2023-01-07T21:06:19.718Z,43.33
2023-01-07T21:08:48.543Z,46.10
2023-01-07T21:11:21.382Z,49.43
2023-01-07T21:13:50.262Z,45.93
2023-01-07T21:16:18.060Z,44.43
2023-01-07T21:18:45.273Z,44.03
2023-01-07T21:21:19.185Z,46.70
2023-01-07T21:23:47.078Z,43.43
2023-01-07T21:26:15.270Z,45.47
2023-01-07T21:28:44.324Z,40.73
2023-01-07T21:31:14.376Z,38.33
2023-01-07T21:33:41.857Z,41.80
2023-01-07T21:36:19.354Z,44.63
2023-01-07T21:38:47.175Z,43.60
2023-01-07T21:41:17.596Z,44.50
2023-01-07T21:43:45.000Z,41.47
2023-01-07T21:46:12.742Z,41.27
2023-01-07T21:48:44.451Z,38.33
2023-01-07T21:51:20.323Z,43.43
2023-01-07T21:53:47.957Z,40.53
2023-01-07T21:56:17.975Z,43.00
2023-01-07T21:58:46.945Z,39.03
2023-01-07T22:01:15.885Z,42.97
2023-01-07T22:03:49.213Z,43.77
2023-01-07T22:06:20.097Z,44.90
2023-01-07T22:08:47.543Z,44.13
2023-01-07T22:11:17.647Z,42.73
2023-01-07T22:13:44.675Z,43.93
2023-01-07T22:16:11.775Z,44.23
2023-01-07T22:18:38.890Z,41.57
2023-01-07T22:21:06.153Z,48.33
2023-01-07T22:23:33.181Z,46.13
2023-01-07T22:26:05.696Z,48.03
2023-01-07T22:28:35.736Z,42.07
2023-01-07T22:31:32.893Z,46.53
2023-01-07T22:34:00.164Z,45.27
2023-01-07T22:36:45.711Z,45.23
2023-01-07T22:39:25.853Z,46.23
2023-01-07T22:41:56.309Z,45.90
2023-01-07T22:44:45.649Z,53.33
2023-01-07T22:47:17.786Z,47.13
2023-01-07T22:49:45.805Z,50.07
2023-01-07T22:52:12.949Z,46.57
2023-01-07T22:54:40.079Z,44.97
2023-01-07T22:57:11.015Z,44.57
2023-01-07T22:59:38.553Z,42.27
2023-01-07T23:02:06.067Z,49.37
2023-01-07T23:04:33.233Z,48.73
2023-01-07T23:07:00.336Z,44.40
2023-01-07T23:09:27.366Z,49.70
2023-01-07T23:11:59.380Z,48.23
2023-01-07T23:14:28.968Z,47.40
2023-01-07T23:16:57.216Z,46.83
2023-01-07T23:19:24.279Z,52.03
2023-01-07T23:21:53.402Z,51.13
2023-01-07T23:24:21.392Z,48.83
2023-01-07T23:26:51.481Z,49.00
2023-01-07T23:29:19.256Z,49.27
2023-01-07T23:31:46.820Z,51.43
2023-01-07T23:34:16.659Z,52.17
2023-01-07T23:36:43.948Z,48.70
2023-01-07T23:39:11.021Z,50.87
2023-01-07T23:41:37.989Z,44.90
2023-01-07T23:44:05.135Z,51.37
2023-01-07T23:46:32.965Z,50.77
2023-01-07T23:49:00.033Z,50.53
2023-01-07T23:51:27.364Z,51.63
2023-01-07T23:53:54.537Z,52.33
2023-01-07T23:56:22.588Z,49.87
2023-01-07T23:58:50.621Z,48.70
